Time;durP1;ratioP1;P1;durP2;ratioP2;P2;SDS_P1;SDS_P2;PMS_P1;PMS_P2;Temp;Humidity;BMP_temperature;BMP_pressure;BME280_temperature;BME280_humidity;BME280_pressure;Samples;Min_cycle;Max_cycle;Signal;HPM_P1;HPM_P2
2023/03/10 00:00:55;;;;;;;1.30;1.10;;;12.60;81.50;;;12.77;54.15;94219.88;5068531;28;20454;-57
2023/03/10 00:03:24;;;;;;;1.30;1.20;;;12.60;81.80;;;12.76;54.48;94217.41;5073327;28;20470;-57
2023/03/10 00:05:51;;;;;;;2.07;1.20;;;12.60;82.80;;;12.73;54.26;94214.13;5067769;28;20511;-57
2023/03/10 00:08:18;;;;;;;1.40;1.30;;;12.60;82.40;;;12.73;54.81;94222.03;5067543;28;20475;-57
2023/03/10 00:10:46;;;;;;;1.63;1.43;;;12.60;84.20;;;12.72;54.42;94227.47;5067574;28;20462;-59
2023/03/10 00:13:14;;;;;;;1.90;1.73;;;12.60;83.10;;;12.70;54.41;94227.66;5074559;28;21447;-56
2023/03/10 00:15:41;;;;;;;1.63;1.17;;;12.60;83.40;;;12.69;54.50;94228.63;5070746;28;20535;-56
2023/03/10 00:18:09;;;;;;;1.60;1.40;;;12.60;83.60;;;12.70;54.70;94230.28;5059864;28;20970;-56
2023/03/10 00:20:37;;;;;;;7.43;1.67;;;12.60;84.00;;;12.70;54.69;94229.44;5073050;28;20859;-56
2023/03/10 00:23:04;;;;;;;1.77;1.67;;;12.50;84.30;;;12.69;54.77;94225.97;5070400;28;20471;-56
2023/03/10 00:25:32;;;;;;;1.30;1.20;;;12.50;84.50;;;12.69;54.64;94225.16;5067203;28;20462;-56
2023/03/10 00:27:59;;;;;;;1.93;1.53;;;12.50;84.50;;;12.69;54.86;94230.44;5069577;28;20564;-58
2023/03/10 00:30:28;;;;;;;3.27;1.50;;;12.50;85.10;;;12.69;54.74;94241.00;5071305;28;20501;-57
2023/03/10 00:32:55;;;;;;;3.17;1.87;;;12.50;85.00;;;12.67;54.89;94240.31;5069575;28;20564;-55
2023/03/10 00:35:22;;;;;;;1.30;1.20;;;12.50;85.90;;;12.66;55.26;94238.69;5071770;28;20509;-58
2023/03/10 00:37:52;;;;;;;1.87;1.40;;;12.50;85.40;;;12.63;55.38;94233.75;5076437;28;20482;-54
2023/03/10 00:40:19;;;;;;;1.80;1.60;;;12.50;86.40;;;12.59;55.33;94225.34;5070047;28;20504;-57
2023/03/10 00:42:47;;;;;;;4.40;1.50;;;12.40;86.10;;;12.57;55.63;94216.78;5063419;28;20481;-56
2023/03/10 00:45:14;;;;;;;1.77;1.67;;;12.40;86.50;;;12.55;55.21;94216.13;5072963;28;21002;-56
2023/03/10 00:47:41;;;;;;;4.03;1.80;;;12.40;86.10;;;12.53;55.32;94208.38;5070818;28;20479;-56
2023/03/10 00:50:11;;;;;;;1.60;1.50;;;12.40;86.50;;;12.51;55.26;94218.25;5061465;28;20524;-55
2023/03/10 00:52:38;;;;;;;1.97;1.53;;;12.40;86.70;;;12.48;55.41;94210.69;5073528;28;20478;-55
2023/03/10 00:55:08;;;;;;;2.53;1.53;;;12.40;87.00;;;12.47;55.70;94202.94;5071739;28;20923;-56
2023/03/10 00:57:37;;;;;;;2.80;1.80;;;12.30;87.70;;;12.45;56.05;94197.03;5063139;28;20482;-57
2023/03/10 01:00:06;;;;;;;1.80;1.70;;;12.30;88.80;;;12.43;55.97;94197.19;5068313;28;20832;-58
2023/03/10 01:02:33;;;;;;;2.90;2.00;;;12.30;88.20;;;12.43;55.98;94205.09;5071811;28;20483;-57
2023/03/10 01:05:01;;;;;;;3.67;1.80;;;12.30;88.20;;;12.43;56.35;94207.72;5066934;28;20455;-56
2023/03/10 01:07:28;;;;;;;1.67;1.57;;;12.30;89.40;;;12.44;56.45;94211.19;5077835;28;20578;-56
2023/03/10 01:09:55;;;;;;;3.37;1.80;;;12.30;90.00;;;12.44;56.56;94214.66;5065626;28;21048;-57
2023/03/10 01:12:24;;;;;;;4.10;2.13;;;12.30;90.20;;;12.44;56.65;94212.03;5064955;28;20478;-56
2023/03/10 01:14:51;;;;;;;2.70;2.07;;;12.30;90.20;;;12.44;56.64;94212.03;5067238;28;20457;-58
2023/03/10 01:17:18;;;;;;;5.37;1.70;;;12.30;90.40;;;12.44;57.07;94198.84;5073737;28;20470;-56
2023/03/10 01:19:46;;;;;;;3.47;1.77;;;12.30;90.90;;;12.45;56.99;94200.47;5068963;28;20451;-58
2023/03/10 01:22:13;;;;;;;3.13;1.73;;;12.30;91.10;;;12.45;56.75;94205.75;5065551;28;20555;-57
2023/03/10 01:24:40;;;;;;;1.67;1.33;;;12.30;90.80;;;12.45;56.83;94195.19;5076388;28;20975;-59
2023/03/10 01:27:07;;;;;;;2.50;1.47;;;12.30;90.90;;;12.45;56.73;94204.94;5069564;28;20482;-55
2023/03/10 01:29:36;;;;;;;3.10;1.53;;;12.30;90.80;;;12.47;56.81;94198.50;5067673;28;20546;-56
2023/03/10 01:32:04;;;;;;;2.03;1.57;;;12.30;90.80;;;12.47;56.85;94198.50;5069796;28;20475;-57
2023/03/10 01:34:31;;;;;;;2.50;1.37;;;12.30;91.00;;;12.45;56.90;94189.91;5072895;28;20537;-55
2023/03/10 01:36:58;;;;;;;3.60;1.30;;;12.30;90.90;;;12.44;57.29;94193.56;5058886;28;20509;-56
2023/03/10 01:39:26;;;;;;;2.37;1.53;;;12.30;91.20;;;12.42;56.86;94200.00;5069252;28;20454;-55
2023/03/10 01:41:53;;;;;;;2.57;1.80;;;12.30;91.00;;;12.41;56.69;94204.44;5072064;28;20483;-56
2023/03/10 01:44:21;;;;;;;6.10;1.80;;;12.30;91.10;;;12.39;56.92;94195.88;5067352;28;20497;-55
2023/03/10 01:46:50;;;;;;;4.80;1.90;;;12.30;91.30;;;12.37;57.11;94197.84;5067564;28;21010;-56
2023/03/10 01:49:30;;;;;;;2.27;1.83;;;12.20;91.30;;;12.36;56.74;94201.47;5071229;28;20495;-56
2023/03/10 01:52:01;;;;;;;3.80;1.97;;;12.20;91.10;;;12.35;56.96;94211.22;5067714;28;20474;-57
2023/03/10 01:54:32;;;;;;;5.73;1.90;;;12.20;91.40;;;12.34;57.02;94214.00;5068544;28;20454;-56
2023/03/10 01:56:59;;;;;;;11.23;1.83;;;12.20;91.30;;;12.33;57.03;94212.34;5082594;28;21060;-57
2023/03/10 01:59:26;;;;;;;4.20;1.80;;;12.20;91.40;;;12.33;57.16;94215.00;5075538;28;20447;-55
2023/03/10 02:01:55;;;;;;;1.90;1.80;;;12.20;91.50;;;12.33;57.15;94213.19;5071016;28;20477;-55
2023/03/10 02:04:27;;;;;;;1.60;1.50;;;12.20;91.70;;;12.30;57.38;94202.13;5078511;28;21221;-56
2023/03/10 02:06:55;;;;;;;2.40;1.90;;;12.20;91.90;;;12.31;57.49;94194.06;5078526;28;20485;-56
2023/03/10 02:09:22;;;;;;;1.80;1.67;;;12.20;91.80;;;12.32;57.20;94197.53;5069709;28;20497;-57
2023/03/10 02:11:49;;;;;;;2.30;1.37;;;12.10;91.70;;;12.32;57.26;94197.53;5069702;28;20480;-57
2023/03/10 02:14:17;;;;;;;2.27;1.23;;;12.10;91.90;;;12.30;57.29;94191.59;5075210;28;20566;-56
2023/03/10 02:16:44;;;;;;;1.97;1.43;;;12.10;91.90;;;12.30;57.21;94194.22;5061513;28;21034;-57
2023/03/10 02:19:31;;;;;;;1.77;1.37;;;12.10;91.80;;;12.28;57.67;94190.94;5067692;28;20462;-56
2023/03/10 02:22:03;;;;;;;4.30;2.07;;;12.10;92.20;;;12.27;57.78;94202.47;5069445;28;21091;-55
2023/03/10 02:24:34;;;;;;;2.40;1.73;;;12.10;92.30;;;12.26;57.69;94203.47;5067476;28;20451;-54
2023/03/10 02:27:03;;;;;;;1.90;1.80;;;12.10;92.40;;;12.25;57.52;94205.28;5069475;28;20473;-57
2023/03/10 02:29:34;;;;;;;3.83;1.70;;;12.10;92.40;;;12.25;57.72;94207.09;5069174;28;20994;-57
2023/03/10 02:32:01;;;;;;;4.73;2.10;;;12.10;92.80;;;12.26;57.82;94200.84;5070527;28;20492;-56
2023/03/10 02:34:29;;;;;;;8.20;2.00;;;12.10;92.80;;;12.26;58.52;94200.84;5068156;28;20465;-55
2023/03/10 02:36:56;;;;;;;3.43;2.17;;;12.10;92.80;;;12.28;57.85;94194.41;5076716;28;20500;-57
2023/03/10 02:39:23;;;;;;;3.30;2.00;;;12.10;92.80;;;12.28;58.23;94189.13;5070792;28;20459;-54
2023/03/10 02:41:51;;;;;;;3.87;1.67;;;12.10;93.10;;;12.29;58.27;94184.69;5062265;28;20485;-56
2023/03/10 02:44:21;;;;;;;1.77;1.67;;;12.10;93.30;;;12.30;58.16;94191.59;5071068;28;20471;-55
2023/03/10 02:46:49;;;;;;;4.23;2.00;;;12.10;93.20;;;12.31;58.29;94203.81;5075696;28;20466;-58
2023/03/10 02:49:17;;;;;;;3.10;1.70;;;12.10;93.40;;;12.29;57.92;94200.50;5070525;28;20490;-56
2023/03/10 02:51:46;;;;;;;3.83;2.00;;;12.10;93.30;;;12.29;58.41;94205.78;5070203;28;20470;-56
2023/03/10 02:54:13;;;;;;;2.90;2.07;;;12.10;93.60;;;12.24;58.24;94210.72;5078508;28;21161;-56
2023/03/10 02:56:41;;;;;;;1.87;1.63;;;12.10;93.20;;;12.14;58.42;94209.06;5072769;28;20484;-55
2023/03/10 02:59:09;;;;;;;3.03;1.80;;;12.00;93.10;;;12.04;58.46;94211.06;5073195;28;20489;-57
2023/03/10 03:01:36;;;;;;;3.40;2.27;;;11.90;93.10;;;11.94;58.31;94208.59;5076796;28;20499;-55
2023/03/10 03:04:05;;;;;;;85.93;33.40;;;11.80;93.20;;;11.88;58.44;94205.75;5069943;28;21305;-55
2023/03/10 03:06:32;;;;;;;23.97;10.20;;;11.80;93.40;;;11.86;58.92;94205.09;5068960;28;20488;-55
2023/03/10 03:08:59;;;;;;;14.60;6.57;;;11.80;93.70;;;11.85;58.90;94206.94;5077881;28;20507;-57
2023/03/10 03:11:27;;;;;;;8.60;5.27;;;11.70;93.90;;;11.87;58.85;94202.31;5072615;28;20501;-56
2023/03/10 03:13:54;;;;;;;11.23;2.70;;;11.70;93.80;;;11.90;59.05;94207.25;5068213;28;21024;-56
2023/03/10 03:16:22;;;;;;;3.53;2.47;;;11.80;94.10;;;11.90;59.03;94201.13;5077158;28;20506;-57
2023/03/10 03:18:49;;;;;;;5.60;3.10;;;11.80;94.10;;;11.91;58.87;94193.06;5073029;28;20869;-56
2023/03/10 03:21:20;;;;;;;4.67;2.43;;;11.70;94.20;;;11.93;58.99;94195.56;5065626;28;20458;-54
2023/03/10 03:23:47;;;;;;;4.37;2.57;;;11.80;94.10;;;11.93;58.78;94191.16;5073802;28;20528;-56
2023/03/10 03:26:16;;;;;;;2.60;2.40;;;11.80;94.10;;;11.95;58.95;94193.63;5073900;28;20459;-57
2023/03/10 03:28:45;;;;;;;3.50;2.10;;;11.80;94.20;;;11.94;58.80;94192.78;5069555;28;20564;-55
2023/03/10 03:31:17;;;;;;;4.53;2.13;;;11.80;94.10;;;11.96;58.64;94189.97;5069873;28;20493;-55
2023/03/10 03:33:44;;;;;;;5.63;2.63;;;11.80;94.00;;;11.97;58.90;94183.72;5079150;28;20524;-55
2023/03/10 03:36:11;;;;;;;3.40;2.60;;;11.80;94.10;;;11.96;58.60;94195.25;5078692;28;21428;-59
2023/03/10 03:38:41;;;;;;;4.20;2.70;;;11.80;94.10;;;11.93;58.55;94190.31;5075947;28;20892;-58
2023/03/10 03:41:09;;;;;;;3.40;2.50;;;11.80;94.00;;;11.90;58.55;94191.44;5082266;28;20442;-56
2023/03/10 03:43:36;;;;;;;9.03;2.93;;;11.80;93.90;;;11.87;58.70;94183.03;5077343;28;20439;-56
2023/03/10 03:46:04;;;;;;;5.00;1.97;;;11.70;94.10;;;11.86;58.58;94199.84;5065771;28;20467;-56
2023/03/10 03:48:33;;;;;;;2.93;2.60;;;11.70;94.00;;;11.86;59.07;94197.19;5079548;28;20464;-57
2023/03/10 03:51:01;;;;;;;3.30;2.97;;;11.70;94.20;;;11.84;59.22;94194.72;5073839;28;20513;-57
2023/03/10 03:53:29;;;;;;;3.00;2.30;;;11.70;94.30;;;11.87;58.84;94198.84;5068010;28;20435;-56
2023/03/10 03:55:57;;;;;;;9.23;3.53;;;11.70;94.40;;;11.86;59.11;94199.84;5077561;28;20485;-56
2023/03/10 03:58:25;;;;;;;4.30;2.20;;;11.70;94.60;;;11.82;59.34;94202.81;5072074;28;20532;-55
2023/03/10 04:00:52;;;;;;;2.50;2.30;;;11.70;94.60;;;11.82;59.09;94204.63;5071476;28;21035;-55
2023/03/10 04:03:19;;;;;;;3.30;3.00;;;11.70;94.50;;;11.81;59.08;94195.88;5070966;28;20477;-56
2023/03/10 04:05:47;;;;;;;4.60;2.60;;;11.70;94.80;;;11.81;58.96;94192.44;5077301;28;20470;-55
2023/03/10 04:08:14;;;;;;;2.87;2.60;;;11.70;94.30;;;11.80;59.20;94207.44;5071213;28;20478;-56
2023/03/10 04:10:41;;;;;;;5.53;4.37;;;11.70;94.80;;;11.79;59.17;94205.75;5071869;28;20554;-57
2023/03/10 04:13:10;;;;;;;4.70;2.77;;;11.70;94.80;;;11.77;59.31;94207.75;5074585;28;20485;-57
2023/03/10 04:15:37;;;;;;;4.47;3.07;;;11.60;94.80;;;11.80;59.31;94209.22;5074020;28;20454;-56
2023/03/10 04:18:04;;;;;;;3.13;2.70;;;11.60;94.90;;;11.81;58.88;94201.16;5066972;28;21004;-57
2023/03/10 04:20:32;;;;;;;7.97;3.60;;;11.70;94.80;;;11.83;59.12;94190.44;5076221;28;20523;-58
2023/03/10 04:23:00;;;;;;;18.80;3.40;;;11.70;94.70;;;11.86;59.12;94186.66;5076157;28;20486;-56
2023/03/10 04:25:28;;;;;;;3.53;3.23;;;11.70;94.70;;;11.87;59.31;94185.66;5066241;28;20943;-56
2023/03/10 04:27:56;;;;;;;3.50;2.93;;;11.70;95.00;;;11.87;59.53;94183.88;5074203;28;20482;-55
2023/03/10 04:30:28;;;;;;;3.63;3.33;;;11.80;95.10;;;11.88;59.32;94188.13;5067709;28;20556;-55
2023/03/10 04:32:58;;;;;;;5.70;3.73;;;11.80;95.00;;;11.90;59.42;94186.16;5066180;28;21006;-57
2023/03/10 04:35:26;;;;;;;4.27;3.60;;;11.80;95.00;;;11.93;59.53;94185.88;5071672;28;20984;-56
2023/03/10 04:37:53;;;;;;;5.90;3.40;;;11.80;95.30;;;11.97;59.42;94181.91;5068999;28;20541;-57
2023/03/10 04:40:21;;;;;;;8.27;4.33;;;11.80;95.00;;;12.00;59.23;94175.47;5069516;28;20465;-61
2023/03/10 04:42:48;;;;;;;26.13;4.10;;;11.80;95.10;;;12.00;59.63;94175.47;5066700;28;20475;-56
2023/03/10 04:45:16;;;;;;;9.43;5.53;;;11.90;95.40;;;11.99;59.85;94171.19;5072002;28;20455;-55
2023/03/10 04:47:44;;;;;;;12.70;5.97;;;11.90;95.40;;;11.97;59.24;94171.34;5073439;28;20562;-57
2023/03/10 04:50:16;;;;;;;4.80;4.30;;;11.80;95.30;;;11.98;59.46;94177.47;5064129;28;20504;-57
2023/03/10 04:52:43;;;;;;;16.93;8.30;;;11.80;95.30;;;11.99;59.22;94179.09;5079070;28;20466;-57
2023/03/10 04:55:11;;;;;;;6.80;5.20;;;11.80;95.30;;;12.00;59.28;94164.94;5072708;28;21030;-56
2023/03/10 04:57:39;;;;;;;7.70;5.03;;;11.90;95.40;;;11.99;59.63;94163.28;5067617;28;20540;-54
2023/03/10 05:00:08;;;;;;;16.03;6.23;;;11.80;95.40;;;11.99;60.07;94163.28;5070814;28;20565;-55
2023/03/10 05:02:36;;;;;;;11.97;7.53;;;11.80;95.70;;;11.98;59.63;94169.56;5071551;28;20840;-55
2023/03/10 05:05:06;;;;;;;10.67;5.57;;;11.80;95.40;;;11.98;59.83;94159.84;5064434;28;20458;-55
2023/03/10 05:07:33;;;;;;;22.40;10.43;;;11.80;95.40;;;12.00;60.81;94155.22;5069888;28;21051;-55
2023/03/10 05:10:00;;;;;;;28.50;9.87;;;11.90;96.40;;;11.99;60.17;94144.84;5077265;28;20489;-58
2023/03/10 05:12:27;;;;;;;19.30;9.03;;;11.90;96.20;;;11.98;59.75;94156.38;5069511;28;20475;-57
2023/03/10 05:14:55;;;;;;;15.60;7.93;;;11.80;95.80;;;11.97;59.75;94154.72;5066120;28;20450;-55
2023/03/10 05:17:22;;;;;;;27.63;8.33;;;11.80;95.60;;;11.92;59.42;94152.59;5076723;28;20591;-58
2023/03/10 05:19:49;;;;;;;20.90;8.70;;;11.80;95.30;;;11.87;59.70;94149.63;5073590;28;20459;-61
2023/03/10 05:22:18;;;;;;;13.57;7.90;;;11.80;95.40;;;11.83;60.17;94151.75;5067618;28;20463;-56
2023/03/10 05:24:46;;;;;;;20.90;7.60;;;11.70;95.70;;;11.82;60.23;94144.03;5063587;28;20462;-57
2023/03/10 05:27:14;;;;;;;19.07;9.77;;;11.70;95.90;;;11.82;60.30;94139.56;5070763;28;20551;-58
2023/03/10 05:29:41;;;;;;;12.37;8.73;;;11.70;96.00;;;11.82;60.03;94138.75;5068107;28;20451;-58
2023/03/10 05:32:08;;;;;;;19.23;8.47;;;11.70;96.00;;;11.83;59.78;94138.59;5073714;28;20474;-58
2023/03/10 05:34:36;;;;;;;14.37;8.53;;;11.70;95.80;;;11.83;60.20;94135.09;5074108;28;20454;-55
2023/03/10 05:37:03;;;;;;;18.73;7.40;;;11.70;96.20;;;11.83;60.20;94137.75;5067505;28;21311;-58
2023/03/10 05:39:31;;;;;;;18.93;8.90;;;11.70;96.20;;;11.83;60.41;94143.00;5068292;28;20463;-55
2023/03/10 05:41:59;;;;;;;25.73;9.17;;;11.70;96.10;;;11.83;60.10;94135.94;5070923;28;20851;-57
2023/03/10 05:44:26;;;;;;;14.80;9.80;;;11.70;96.10;;;11.87;60.13;94125.06;5063946;28;20447;-56
2023/03/10 05:46:53;;;;;;;20.77;9.73;;;11.70;96.20;;;11.90;60.52;94130.00;5062764;28;20551;-58
2023/03/10 05:49:21;;;;;;;18.03;10.70;;;11.80;96.30;;;11.93;60.19;94122.63;5076048;28;20458;-58
2023/03/10 05:51:48;;;;;;;23.40;12.17;;;11.80;96.40;;;11.93;60.31;94124.41;5072554;28;20644;-57
2023/03/10 05:54:15;;;;;;;16.07;9.20;;;11.80;96.30;;;11.93;60.45;94121.78;5067558;28;20454;-55
2023/03/10 05:56:44;;;;;;;19.60;9.63;;;11.80;96.30;;;11.92;60.24;94120.97;5076295;28;20478;-56
2023/03/10 05:59:11;;;;;;;20.37;9.70;;;11.80;96.50;;;11.94;60.30;94123.44;5072979;28;20875;-55
2023/03/10 06:01:38;;;;;;;24.63;10.07;;;11.80;96.30;;;11.94;60.10;94123.44;5068801;28;20897;-58
2023/03/10 06:04:06;;;;;;;27.27;9.60;;;11.80;96.20;;;11.98;60.07;94122.94;5071954;28;20480;-56
2023/03/10 06:06:33;;;;;;;21.90;9.67;;;11.80;96.40;;;12.04;60.09;94128.53;5075344;28;20485;-57
2023/03/10 06:09:00;;;;;;;19.37;9.80;;;11.90;96.30;;;12.11;59.93;94130.31;5069466;28;20530;-56
2023/03/10 06:11:28;;;;;;;24.47;11.20;;;11.90;96.30;;;12.21;59.76;94140.72;5070505;28;20494;-55
2023/03/10 06:13:56;;;;;;;19.00;11.47;;;12.00;96.20;;;12.29;59.87;94142.50;5076949;28;20573;-57
2023/03/10 06:16:24;;;;;;;19.87;11.63;;;12.10;96.30;;;12.33;60.11;94141.16;5069633;28;21018;-57
2023/03/10 06:18:54;;;;;;;34.37;10.37;;;12.20;96.50;;;12.38;59.57;94141.50;5068720;28;20449;-56
2023/03/10 06:21:21;;;;;;;22.10;10.70;;;12.20;96.10;;;12.42;59.46;94140.16;5075572;28;21049;-56
2023/03/10 06:23:48;;;;;;;18.13;9.90;;;12.30;96.10;;;12.49;59.42;94145.59;5071024;28;20459;-57
2023/03/10 06:26:17;;;;;;;24.47;14.53;;;12.30;96.00;;;12.55;59.17;94147.53;5052577;28;20451;-57
2023/03/10 06:28:45;;;;;;;22.50;10.50;;;12.40;95.70;;;12.61;59.23;94135.47;5076958;28;20886;-55
2023/03/10 06:31:15;;;;;;;21.33;10.60;;;12.40;95.60;;;12.65;59.16;94136.78;5065537;28;20483;-56
2023/03/10 06:33:43;;;;;;;25.50;11.87;;;12.50;95.70;;;12.67;59.04;94142.72;5048609;28;20945;-56
2023/03/10 06:36:11;;;;;;;22.87;9.90;;;12.50;95.70;;;12.69;58.64;94128.38;5070179;28;20880;-55
2023/03/10 06:38:38;;;;;;;20.83;10.93;;;12.50;95.70;;;12.70;58.30;94129.19;5062044;28;20521;-57
2023/03/10 06:41:06;;;;;;;28.63;9.83;;;12.50;95.10;;;12.66;58.49;94144.53;5061522;28;20479;-57
2023/03/10 06:43:33;;;;;;;27.87;10.53;;;12.50;95.10;;;12.67;58.52;94140.91;5060768;28;20451;-57
2023/03/10 06:46:03;;;;;;;18.37;9.77;;;12.50;95.20;;;12.71;58.45;94146.66;5079778;28;20633;-57
2023/03/10 06:48:31;;;;;;;20.03;10.00;;;12.60;95.10;;;12.76;59.19;94148.78;5074032;28;20458;-56
2023/03/10 06:50:59;;;;;;;14.77;10.30;;;12.60;95.80;;;12.80;59.03;94143.00;5074448;28;20485;-58
2023/03/10 06:53:27;;;;;;;26.63;10.90;;;12.60;95.70;;;12.85;59.45;94143.28;5080829;28;20481;-56
2023/03/10 06:55:58;;;;;;;18.40;10.00;;;12.70;95.90;;;12.93;59.86;94144.25;5073028;28;20562;-56
2023/03/10 06:58:25;;;;;;;18.33;9.10;;;12.70;96.10;;;12.97;59.06;94143.75;5065589;28;20454;-58
2023/03/10 07:00:53;;;;;;;24.23;10.90;;;12.80;96.10;;;13.03;58.86;94134.31;5078630;28;20473;-59
2023/03/10 07:03:20;;;;;;;31.27;11.00;;;12.80;95.80;;;13.07;59.16;94135.59;5076264;28;20471;-57
2023/03/10 07:05:48;;;;;;;31.23;11.97;;;12.90;95.90;;;13.13;58.73;94134.91;5071764;28;20508;-56
2023/03/10 07:08:16;;;;;;;22.87;12.43;;;12.90;95.70;;;13.18;58.41;94132.56;5080025;28;20825;-57
2023/03/10 07:10:43;;;;;;;38.10;12.97;;;13.00;95.20;;;13.21;58.14;94134.84;5076156;28;20493;-57
2023/03/10 07:13:14;;;;;;;31.90;11.50;;;13.00;95.00;;;13.29;58.21;94128.69;5072762;28;20478;-57
2023/03/10 07:15:41;;;;;;;27.90;11.67;;;13.10;95.00;;;13.39;58.12;94131.16;5074855;28;20443;-58
2023/03/10 07:18:08;;;;;;;25.83;17.00;;;13.20;95.20;;;13.51;57.93;94127.13;5078627;28;20519;-58
2023/03/10 07:20:36;;;;;;;35.53;15.20;;;13.30;94.80;;;13.63;57.80;94130.16;5073846;28;20568;-57
2023/03/10 07:23:04;;;;;;;28.70;12.60;;;13.40;94.70;;;13.73;57.51;94129.94;5071821;28;20573;-57
2023/03/10 07:25:34;;;;;;;23.97;11.43;;;13.50;94.60;;;13.79;57.06;94119.47;5080261;28;20526;-58
2023/03/10 07:28:01;;;;;;;29.43;12.40;;;13.60;94.40;;;13.88;57.37;94104.38;5074507;28;20500;-57
2023/03/10 07:30:28;;;;;;;23.63;11.70;;;13.70;94.30;;;13.98;57.24;94102.28;5069499;28;20447;-58
2023/03/10 07:32:56;;;;;;;21.33;11.17;;;13.80;94.30;;;14.07;56.85;94112.78;5078890;28;20885;-57
2023/03/10 07:35:23;;;;;;;14.70;9.80;;;13.90;94.10;;;14.15;56.69;94113.50;5075309;28;20970;-57
2023/03/10 07:37:50;;;;;;;26.40;11.70;;;13.90;93.90;;;14.27;56.48;94121.03;5070643;28;20549;-56
2023/03/10 07:40:21;;;;;;;27.33;12.40;;;14.00;93.70;;;14.40;56.32;94115.91;5076695;28;20446;-57
2023/03/10 07:42:48;;;;;;;19.30;12.30;;;14.20;93.70;;;14.61;56.06;94111.72;5076953;28;20482;-56
2023/03/10 07:45:16;;;;;;;29.53;12.80;;;14.30;93.60;;;14.81;55.64;94102.25;5067461;28;20557;-57
2023/03/10 07:47:43;;;;;;;28.47;11.77;;;14.60;93.20;;;15.08;55.41;94094.59;5077207;28;20503;-55
2023/03/10 07:50:11;;;;;;;25.47;11.40;;;14.80;93.00;;;15.32;54.91;94095.25;5075606;28;20999;-59
2023/03/10 07:52:39;;;;;;;25.20;13.07;;;15.00;92.60;;;15.49;54.21;94088.72;5067447;28;20494;-56
2023/03/10 07:55:07;;;;;;;23.00;13.60;;;15.20;92.10;;;15.60;53.73;94079.44;5071062;28;20495;-56
2023/03/10 07:57:35;;;;;;;32.10;13.73;;;15.40;91.40;;;15.66;53.62;94077.84;5079590;28;20485;-58
2023/03/10 08:00:04;;;;;;;28.13;12.83;;;15.50;91.20;;;15.70;53.55;94066.66;5073666;28;20512;-58
2023/03/10 08:02:31;;;;;;;46.30;13.20;;;15.40;91.00;;;15.74;53.33;94067.94;5067419;28;21046;-56
2023/03/10 08:04:59;;;;;;;27.20;10.80;;;15.50;90.70;;;15.77;53.40;94061.47;5078531;28;20462;-57
2023/03/10 08:07:27;;;;;;;21.83;11.80;;;15.50;90.60;;;15.76;52.98;94063.25;5075273;28;20623;-55
2023/03/10 08:09:54;;;;;;;26.10;10.87;;;15.60;90.30;;;15.74;53.12;94065.28;5069665;28;20541;-57
2023/03/10 08:12:22;;;;;;;18.10;10.53;;;15.60;90.30;;;15.69;53.11;94054.44;5075982;28;20500;-57
2023/03/10 08:14:50;;;;;;;26.00;10.97;;;15.50;90.20;;;15.64;53.17;94066.63;5077387;28;20540;-55
2023/03/10 08:17:18;;;;;;;28.93;11.87;;;15.50;90.20;;;15.62;53.16;94056.22;5070509;28;20570;-58
2023/03/10 08:19:45;;;;;;;24.90;13.37;;;15.40;90.20;;;15.60;53.38;94037.84;5073885;28;20473;-56
2023/03/10 08:22:13;;;;;;;27.67;12.80;;;15.40;90.30;;;15.67;53.41;94029.13;5073013;28;20482;-56
2023/03/10 08:24:40;;;;;;;31.83;13.90;;;15.40;90.50;;;15.87;53.26;94024.00;5073469;28;20439;-56
2023/03/10 08:27:07;;;;;;;32.50;14.40;;;15.60;90.60;;;16.06;52.98;94025.97;5065131;28;20544;-58
2023/03/10 08:29:35;;;;;;;29.03;11.93;;;15.80;90.40;;;16.30;52.65;94016.72;5080344;28;20458;-57
2023/03/10 08:32:03;;;;;;;25.33;13.33;;;16.00;90.10;;;16.55;52.26;94012.75;5071590;28;20501;-57
2023/03/10 08:34:32;;;;;;;28.67;13.03;;;16.20;89.40;;;16.87;51.48;94011.28;5065655;28;20846;-57
2023/03/10 08:37:00;;;;;;;35.20;11.63;;;16.50;88.60;;;17.12;50.62;93998.25;5078569;28;20479;-56
2023/03/10 08:39:28;;;;;;;18.47;11.03;;;16.70;87.00;;;17.38;50.67;93988.66;5074864;28;20543;-55
2023/03/10 08:41:55;;;;;;;29.47;12.63;;;17.00;86.90;;;17.70;50.51;93999.50;5067347;28;20467;-57
2023/03/10 08:44:22;;;;;;;6.07;4.90;;;17.30;86.90;;;17.92;49.83;93993.00;5073487;28;20465;-58
2023/03/10 08:46:50;;;;;;;11.73;5.43;;;17.50;84.10;;;17.99;48.49;93997.50;5076913;28;20487;-57
2023/03/10 08:49:19;;;;;;;8.53;4.90;;;17.70;82.20;;;18.04;48.78;93997.69;5070286;28;20478;-56
2023/03/10 08:51:47;;;;;;;7.77;3.63;;;17.80;82.20;;;18.10;48.93;93991.53;5072910;28;20489;-57
2023/03/10 08:54:17;;;;;;;10.43;3.67;;;17.80;81.00;;;18.12;49.02;93986.00;5075812;28;20459;-56
2023/03/10 08:56:44;;;;;;;7.60;4.27;;;17.90;80.60;;;18.14;47.99;93987.44;5058533;28;20479;-55
2023/03/10 08:59:11;;;;;;;9.83;4.40;;;17.90;79.70;;;18.22;48.76;93976.56;5066508;28;20453;-57
2023/03/10 09:01:39;;;;;;;19.53;4.10;;;17.90;80.00;;;18.33;47.91;93984.94;5077653;28;20549;-56
2023/03/10 09:04:07;;;;;;;5.77;4.23;;;18.10;79.30;;;18.46;46.91;93972.34;5071161;28;20451;-58
2023/03/10 09:06:36;;;;;;;4.10;3.63;;;18.20;77.90;;;18.43;47.74;93978.13;5069382;28;20483;-56
2023/03/10 09:09:03;;;;;;;8.73;4.10;;;18.20;78.60;;;18.28;47.75;93967.72;5079011;28;20508;-57
2023/03/10 09:11:32;;;;;;;4.47;3.57;;;18.10;76.70;;;18.07;47.79;93968.00;5074304;28;20487;-58
2023/03/10 09:14:00;;;;;;;7.93;4.10;;;17.90;76.60;;;17.89;48.30;93966.81;5069229;28;20525;-58
2023/03/10 09:16:28;;;;;;;5.20;4.07;;;17.80;77.00;;;17.72;48.13;93966.38;5075097;28;20632;-57
2023/03/10 09:18:55;;;;;;;12.27;5.27;;;17.60;76.50;;;17.60;48.30;93967.19;5075588;28;20566;-55
2023/03/10 09:21:22;;;;;;;4.00;2.50;;;17.40;77.50;;;17.49;48.76;93956.16;5068906;28;20532;-57
2023/03/10 09:23:52;;;;;;;9.93;3.97;;;17.30;77.50;;;17.41;48.77;93942.25;5074577;28;20936;-57
2023/03/10 09:26:19;;;;;;;8.47;4.20;;;17.30;77.90;;;17.34;48.63;93937.75;5077631;28;20458;-55
2023/03/10 09:28:48;;;;;;;6.93;4.40;;;17.20;78.40;;;17.28;49.09;93935.91;5070659;28;20814;-57
2023/03/10 09:31:17;;;;;;;13.13;7.23;;;17.10;78.60;;;17.24;49.07;93937.34;5072282;28;20453;-56
2023/03/10 09:33:44;;;;;;;22.23;9.47;;;17.00;78.80;;;17.22;49.06;93931.41;5075305;28;20736;-58
2023/03/10 09:36:12;;;;;;;16.73;5.03;;;16.90;79.30;;;17.22;49.10;93933.25;5073061;28;21322;-58
2023/03/10 09:38:40;;;;;;;5.43;4.53;;;16.90;79.20;;;17.12;48.89;93928.38;5065589;28;20500;-56
2023/03/10 09:41:29;;;;;;;13.60;4.80;;;16.90;78.80;;;16.99;49.64;93927.31;5078026;28;20438;-56
2023/03/10 09:44:03;;;;;;;13.87;6.40;;;16.80;79.00;;;16.89;49.70;93928.75;5069732;28;20439;-56
2023/03/10 09:46:34;;;;;;;13.90;6.40;;;16.70;79.30;;;16.77;49.62;93923.97;5067544;28;20479;-56
2023/03/10 09:49:04;;;;;;;12.73;5.60;;;16.60;79.40;;;16.71;49.97;93922.13;5078757;28;20449;-57
2023/03/10 09:51:32;;;;;;;4.97;4.27;;;16.50;79.70;;;16.67;49.67;93918.25;5070467;28;20478;-55
2023/03/10 09:54:24;;;;;;;6.63;4.20;;;16.40;80.10;;;16.68;49.95;93919.88;5066020;28;20983;-56
2023/03/10 09:56:52;;;;;;;11.27;5.10;;;16.40;80.30;;;16.66;49.97;93921.91;5080739;28;20478;-57
2023/03/10 09:59:23;;;;;;;15.33;5.13;;;16.40;80.30;;;16.65;49.79;93915.78;5072623;28;20442;-55
2023/03/10 10:01:51;;;;;;;7.10;4.23;;;16.40;80.50;;;16.62;50.05;93905.56;5063247;28;20479;-57
2023/03/10 10:04:20;;;;;;;7.13;4.57;;;16.40;80.60;;;16.58;50.22;93901.69;5072369;28;20450;-58
2023/03/10 10:06:48;;;;;;;8.40;4.90;;;16.30;80.50;;;16.58;50.39;93898.22;5071484;28;21069;-57
2023/03/10 10:09:21;;;;;;;12.33;6.20;;;16.30;80.90;;;16.57;50.11;93904.53;5057266;28;20524;-57
2023/03/10 10:11:48;;;;;;;7.67;5.53;;;16.30;81.00;;;16.62;50.40;93907.38;5070048;28;20501;-57
2023/03/10 10:14:19;;;;;;;13.80;5.77;;;16.30;80.90;;;16.64;50.11;93902.72;5075519;28;20455;-57
2023/03/10 10:16:52;;;;;;;12.00;5.37;;;16.40;81.00;;;16.67;49.97;93889.84;5072332;28;20485;-58
2023/03/10 10:19:21;;;;;;;10.47;5.10;;;16.40;80.80;;;16.69;50.28;93896.81;5075085;28;20492;-57